Rechercher aéroport 
image banner adimage banner adimage banner ad
image banner ad

L78 - Jacumba

Situé à Jacumba, United States

ICAO - L78, IATA -

Données fournies par Airmate  

Information générale

Coordonnées: N32°36'57" W116°9'56"
Élévation : 2844 feet MSL.
Variation magnétique : 13° East
Voir autres Aéroports à California

Données opérationnelles

Special qualification required
Heure actuelle UTC:
Heure actuelle locale:
Météo à : KNJK - El Centro Naf ( 52 km )
METAR: KNJK 251456Z AUTO 11010KT 10SM FEW120 31/26 A2988 RMK AO2 SLP134 T03060256 53017 $
TAF: TAF AMD KNJK 2420/2515 VRB06KT 9999 VCSH FEW080 SCT150 OVC100 QNH2972INS TEMPO 2420/2423 VRB15G30KT 8000 -TSRA BKN080CB BKN150CB FM251000 VRB06KT 9999 FEW030 BKN080 QNH2982INS LAST NO AMDS AFT 2422 NEXT 2607 T42/2423Z T29/2513Z AMD 2000 FS30167
Voir NOTAMs / SUP AIP / TFR affectant cet aéroport [VIEW]
Fréquences de communication: [VIEW]

Pistes:

Identifiant RWYQFULongueur (ft)Largeur (ft)SurfaceLDA (ft)
07256260ASPH
25256260ASPH

Coordonnées de l'aéroport

Adresse: Jacumba United States

Vue satellite de L78